sensor_id;sensor_type;location;lat;lon;timestamp;P1;durP1;ratioP1;P2;durP2;ratioP2
43325;SDS011;28920;59.862;30.636;2023-03-21T00:00:35;29.70;;;20.12;;
43325;SDS011;28920;59.862;30.636;2023-03-21T00:03:03;33.28;;;23.00;;
43325;SDS011;28920;59.862;30.636;2023-03-21T00:05:31;33.63;;;22.08;;
43325;SDS011;28920;59.862;30.636;2023-03-21T00:07:58;33.65;;;22.13;;
43325;SDS011;28920;59.862;30.636;2023-03-21T00:10:26;31.42;;;22.40;;
43325;SDS011;28920;59.862;30.636;2023-03-21T00:12:53;31.10;;;19.83;;
43325;SDS011;28920;59.862;30.636;2023-03-21T00:15:23;30.12;;;19.95;;
43325;SDS011;28920;59.862;30.636;2023-03-21T00:17:53;25.37;;;17.92;;
43325;SDS011;28920;59.862;30.636;2023-03-21T00:20:23;27.40;;;16.58;;
43325;SDS011;28920;59.862;30.636;2023-03-21T00:22:50;27.27;;;19.35;;
43325;SDS011;28920;59.862;30.636;2023-03-21T00:25:18;28.65;;;17.87;;
43325;SDS011;28920;59.862;30.636;2023-03-21T00:27:45;25.62;;;17.83;;
43325;SDS011;28920;59.862;30.636;2023-03-21T00:30:12;29.48;;;18.60;;
43325;SDS011;28920;59.862;30.636;2023-03-21T00:32:41;27.00;;;19.35;;
43325;SDS011;28920;59.862;30.636;2023-03-21T00:35:08;30.00;;;19.62;;
43325;SDS011;28920;59.862;30.636;2023-03-21T00:37:35;28.50;;;18.60;;
43325;SDS011;28920;59.862;30.636;2023-03-21T00:40:04;27.50;;;17.90;;
43325;SDS011;28920;59.862;30.636;2023-03-21T00:42:35;24.75;;;17.50;;
43325;SDS011;28920;59.862;30.636;2023-03-21T00:45:03;30.37;;;20.50;;
43325;SDS011;28920;59.862;30.636;2023-03-21T00:47:31;38.90;;;24.33;;
43325;SDS011;28920;59.862;30.636;2023-03-21T00:49:58;42.28;;;25.85;;
43325;SDS011;28920;59.862;30.636;2023-03-21T00:52:26;33.28;;;23.33;;
43325;SDS011;28920;59.862;30.636;2023-03-21T00:54:53;28.85;;;19.98;;
43325;SDS011;28920;59.862;30.636;2023-03-21T00:57:21;30.15;;;18.27;;
43325;SDS011;28920;59.862;30.636;2023-03-21T00:59:48;30.00;;;18.85;;
43325;SDS011;28920;59.862;30.636;2023-03-21T01:02:15;26.17;;;18.35;;
43325;SDS011;28920;59.862;30.636;2023-03-21T01:04:47;29.05;;;18.90;;
43325;SDS011;28920;59.862;30.636;2023-03-21T01:07:15;28.05;;;18.95;;
43325;SDS011;28920;59.862;30.636;2023-03-21T01:09:43;29.92;;;18.42;;
43325;SDS011;28920;59.862;30.636;2023-03-21T01:12:10;24.90;;;16.30;;
43325;SDS011;28920;59.862;30.636;2023-03-21T01:14:38;26.42;;;18.33;;
43325;SDS011;28920;59.862;30.636;2023-03-21T01:17:06;26.33;;;18.02;;
43325;SDS011;28920;59.862;30.636;2023-03-21T01:19:33;25.70;;;17.90;;
43325;SDS011;28920;59.862;30.636;2023-03-21T01:22:00;34.65;;;21.55;;
43325;SDS011;28920;59.862;30.636;2023-03-21T01:24:28;31.67;;;20.37;;
43325;SDS011;28920;59.862;30.636;2023-03-21T01:26:55;42.05;;;24.98;;
43325;SDS011;28920;59.862;30.636;2023-03-21T01:29:23;43.00;;;25.23;;
43325;SDS011;28920;59.862;30.636;2023-03-21T01:31:51;48.58;;;25.35;;
43325;SDS011;28920;59.862;30.636;2023-03-21T01:34:18;39.20;;;24.23;;
43325;SDS011;28920;59.862;30.636;2023-03-21T01:36:45;27.98;;;20.00;;
43325;SDS011;28920;59.862;30.636;2023-03-21T01:39:13;28.08;;;19.25;;
43325;SDS011;28920;59.862;30.636;2023-03-21T01:41:41;31.98;;;21.10;;
43325;SDS011;28920;59.862;30.636;2023-03-21T01:44:13;40.85;;;24.25;;
43325;SDS011;28920;59.862;30.636;2023-03-21T01:46:42;31.25;;;20.65;;
43325;SDS011;28920;59.862;30.636;2023-03-21T01:49:14;39.58;;;24.12;;
43325;SDS011;28920;59.862;30.636;2023-03-21T01:51:46;42.58;;;25.33;;
43325;SDS011;28920;59.862;30.636;2023-03-21T01:54:18;52.22;;;27.83;;
43325;SDS011;28920;59.862;30.636;2023-03-21T01:56:50;45.33;;;26.02;;
43325;SDS011;28920;59.862;30.636;2023-03-21T02:01:52;35.47;;;21.70;;
43325;SDS011;28920;59.862;30.636;2023-03-21T02:04:22;32.38;;;21.42;;
43325;SDS011;28920;59.862;30.636;2023-03-21T02:06:54;30.42;;;19.08;;
43325;SDS011;28920;59.862;30.636;2023-03-21T02:09:31;3.87;;;2.72;;
43325;SDS011;28920;59.862;30.636;2023-03-21T02:12:00;3.15;;;1.95;;
43325;SDS011;28920;59.862;30.636;2023-03-21T02:14:29;1.80;;;1.20;;
43325;SDS011;28920;59.862;30.636;2023-03-21T02:17:02;2.78;;;1.15;;
43325;SDS011;28920;59.862;30.636;2023-03-21T02:19:41;2.12;;;1.50;;
43325;SDS011;28920;59.862;30.636;2023-03-21T02:22:46;2.20;;;1.27;;
43325;SDS011;28920;59.862;30.636;2023-03-21T02:25:47;1.73;;;0.98;;
43325;SDS011;28920;59.862;30.636;2023-03-21T02:28:42;1.77;;;0.90;;
43325;SDS011;28920;59.862;30.636;2023-03-21T02:31:22;1.67;;;1.10;;
43325;SDS011;28920;59.862;30.636;2023-03-21T02:36:59;1.52;;;0.88;;
43325;SDS011;28920;59.862;30.636;2023-03-21T02:39:34;1.55;;;0.90;;
43325;SDS011;28920;59.862;30.636;2023-03-21T02:42:11;1.65;;;0.80;;
43325;SDS011;28920;59.862;30.636;2023-03-21T02:44:45;4.62;;;1.20;;
43325;SDS011;28920;59.862;30.636;2023-03-21T02:47:19;2.45;;;1.12;;
43325;SDS011;28920;59.862;30.636;2023-03-21T02:49:53;2.22;;;0.98;;
43325;SDS011;28920;59.862;30.636;2023-03-21T02:52:24;3.53;;;1.10;;
43325;SDS011;28920;59.862;30.636;2023-03-21T02:54:55;2.20;;;1.23;;
43325;SDS011;28920;59.862;30.636;2023-03-21T02:57:29;1.52;;;0.70;;
43325;SDS011;28920;59.862;30.636;2023-03-21T02:59:58;2.15;;;0.80;;
43325;SDS011;28920;59.862;30.636;2023-03-21T03:02:29;1.02;;;0.93;;
43325;SDS011;28920;59.862;30.636;2023-03-21T03:04:56;1.05;;;0.88;;
43325;SDS011;28920;59.862;30.636;2023-03-21T03:07:30;0.93;;;0.70;;
43325;SDS011;28920;59.862;30.636;2023-03-21T03:12:59;1.85;;;0.90;;
43325;SDS011;28920;59.862;30.636;2023-03-21T03:15:42;1.25;;;0.80;;
43325;SDS011;28920;59.862;30.636;2023-03-21T03:18:18;1.58;;;1.12;;
43325;SDS011;28920;59.862;30.636;2023-03-21T03:20:54;3.08;;;1.10;;
43325;SDS011;28920;59.862;30.636;2023-03-21T03:23:30;1.23;;;0.90;;
43325;SDS011;28920;59.862;30.636;2023-03-21T03:26:07;3.05;;;1.02;;
43325;SDS011;28920;59.862;30.636;2023-03-21T03:28:39;2.00;;;1.00;;
43325;SDS011;28920;59.862;30.636;2023-03-21T03:31:13;1.48;;;0.90;;
43325;SDS011;28920;59.862;30.636;2023-03-21T03:33:48;1.75;;;1.00;;
43325;SDS011;28920;59.862;30.636;2023-03-21T03:36:19;1.70;;;1.15;;
43325;SDS011;28920;59.862;30.636;2023-03-21T03:38:54;1.65;;;1.02;;
43325;SDS011;28920;59.862;30.636;2023-03-21T03:41:25;1.30;;;1.02;;
43325;SDS011;28920;59.862;30.636;2023-03-21T03:43:54;1.00;;;0.70;;
43325;SDS011;28920;59.862;30.636;2023-03-21T03:48:56;1.08;;;0.80;;
43325;SDS011;28920;59.862;30.636;2023-03-21T03:51:28;1.12;;;0.60;;
43325;SDS011;28920;59.862;30.636;2023-03-21T03:54:00;0.65;;;0.60;;
43325;SDS011;28920;59.862;30.636;2023-03-21T03:56:33;1.42;;;0.88;;
43325;SDS011;28920;59.862;30.636;2023-03-21T03:59:02;1.10;;;0.80;;
43325;SDS011;28920;59.862;30.636;2023-03-21T04:01:33;1.40;;;0.70;;
43325;SDS011;28920;59.862;30.636;2023-03-21T04:04:01;1.60;;;0.90;;
43325;SDS011;28920;59.862;30.636;2023-03-21T04:06:28;1.23;;;0.98;;
43325;SDS011;28920;59.862;30.636;2023-03-21T04:08:55;1.27;;;0.88;;
43325;SDS011;28920;59.862;30.636;2023-03-21T04:11:24;1.35;;;1.02;;
43325;SDS011;28920;59.862;30.636;2023-03-21T04:13:52;0.50;;;0.40;;
43325;SDS011;28920;59.862;30.636;2023-03-21T04:16:19;2.50;;;1.30;;
43325;SDS011;28920;59.862;30.636;2023-03-21T04:18:48;3.62;;;2.00;;
43325;SDS011;28920;59.862;30.636;2023-03-21T04:21:19;7.53;;;3.62;;
43325;SDS011;28920;59.862;30.636;2023-03-21T04:23:47;5.28;;;2.85;;
43325;SDS011;28920;59.862;30.636;2023-03-21T04:26:14;5.07;;;2.97;;
43325;SDS011;28920;59.862;30.636;2023-03-21T04:28:42;3.53;;;1.98;;
43325;SDS011;28920;59.862;30.636;2023-03-21T04:31:10;7.60;;;3.87;;
43325;SDS011;28920;59.862;30.636;2023-03-21T04:33:39;8.30;;;4.45;;
43325;SDS011;28920;59.862;30.636;2023-03-21T04:36:07;8.57;;;4.62;;
43325;SDS011;28920;59.862;30.636;2023-03-21T04:38:34;3.67;;;2.55;;
43325;SDS011;28920;59.862;30.636;2023-03-21T04:41:02;4.20;;;1.92;;
43325;SDS011;28920;59.862;30.636;2023-03-21T04:43:30;5.05;;;2.92;;
43325;SDS011;28920;59.862;30.636;2023-03-21T04:45:57;10.05;;;4.57;;
43325;SDS011;28920;59.862;30.636;2023-03-21T04:48:25;10.70;;;4.80;;
43325;SDS011;28920;59.862;30.636;2023-03-21T04:50:53;9.18;;;4.80;;
43325;SDS011;28920;59.862;30.636;2023-03-21T04:53:20;10.75;;;4.15;;
43325;SDS011;28920;59.862;30.636;2023-03-21T04:55:48;8.80;;;2.80;;
43325;SDS011;28920;59.862;30.636;2023-03-21T04:58:15;7.43;;;3.08;;
43325;SDS011;28920;59.862;30.636;2023-03-21T05:00:44;10.60;;;3.40;;
43325;SDS011;28920;59.862;30.636;2023-03-21T05:03:12;9.00;;;4.12;;
43325;SDS011;28920;59.862;30.636;2023-03-21T05:05:44;18.85;;;7.12;;
43325;SDS011;28920;59.862;30.636;2023-03-21T05:08:13;19.70;;;6.40;;
43325;SDS011;28920;59.862;30.636;2023-03-21T05:10:41;18.10;;;5.78;;
43325;SDS011;28920;59.862;30.636;2023-03-21T05:13:08;20.45;;;7.12;;
43325;SDS011;28920;59.862;30.636;2023-03-21T05:15:36;13.05;;;4.97;;
43325;SDS011;28920;59.862;30.636;2023-03-21T05:18:03;9.02;;;3.72;;
43325;SDS011;28920;59.862;30.636;2023-03-21T05:20:38;9.43;;;4.22;;
43325;SDS011;28920;59.862;30.636;2023-03-21T05:23:08;6.18;;;2.10;;
43325;SDS011;28920;59.862;30.636;2023-03-21T05:25:37;9.00;;;3.17;;
43325;SDS011;28920;59.862;30.636;2023-03-21T05:28:06;5.10;;;2.75;;
43325;SDS011;28920;59.862;30.636;2023-03-21T05:30:33;5.43;;;2.28;;
43325;SDS011;28920;59.862;30.636;2023-03-21T05:33:01;4.90;;;2.83;;
43325;SDS011;28920;59.862;30.636;2023-03-21T05:35:30;5.12;;;2.30;;
43325;SDS011;28920;59.862;30.636;2023-03-21T05:37:58;4.20;;;1.90;;
43325;SDS011;28920;59.862;30.636;2023-03-21T05:40:26;4.05;;;1.85;;
43325;SDS011;28920;59.862;30.636;2023-03-21T05:42:55;2.55;;;1.42;;
43325;SDS011;28920;59.862;30.636;2023-03-21T05:45:22;2.40;;;1.35;;
43325;SDS011;28920;59.862;30.636;2023-03-21T05:47:50;1.60;;;1.10;;
43325;SDS011;28920;59.862;30.636;2023-03-21T05:50:18;1.45;;;1.10;;
43325;SDS011;28920;59.862;30.636;2023-03-21T05:52:47;1.70;;;1.37;;
43325;SDS011;28920;59.862;30.636;2023-03-21T05:55:16;6.95;;;3.30;;
43325;SDS011;28920;59.862;30.636;2023-03-21T05:57:43;1.48;;;1.23;;
43325;SDS011;28920;59.862;30.636;2023-03-21T06:00:12;1.33;;;1.10;;
43325;SDS011;28920;59.862;30.636;2023-03-21T06:02:41;1.62;;;1.35;;
43325;SDS011;28920;59.862;30.636;2023-03-21T06:05:21;2.28;;;1.42;;
43325;SDS011;28920;59.862;30.636;2023-03-21T06:07:49;2.85;;;1.27;;
43325;SDS011;28920;59.862;30.636;2023-03-21T06:10:17;1.70;;;1.30;;
43325;SDS011;28920;59.862;30.636;2023-03-21T06:12:45;1.60;;;1.30;;
43325;SDS011;28920;59.862;30.636;2023-03-21T06:15:20;2.97;;;1.73;;
43325;SDS011;28920;59.862;30.636;2023-03-21T06:17:48;3.40;;;2.08;;
43325;SDS011;28920;59.862;30.636;2023-03-21T06:20:15;4.95;;;2.37;;
43325;SDS011;28920;59.862;30.636;2023-03-21T06:22:43;4.47;;;2.70;;
43325;SDS011;28920;59.862;30.636;2023-03-21T06:25:11;5.00;;;2.78;;
43325;SDS011;28920;59.862;30.636;2023-03-21T06:27:40;5.78;;;3.65;;
43325;SDS011;28920;59.862;30.636;2023-03-21T06:30:08;10.00;;;4.75;;
43325;SDS011;28920;59.862;30.636;2023-03-21T06:32:38;8.38;;;5.12;;
43325;SDS011;28920;59.862;30.636;2023-03-21T06:35:05;9.70;;;5.87;;
43325;SDS011;28920;59.862;30.636;2023-03-21T06:37:33;7.47;;;4.50;;
43325;SDS011;28920;59.862;30.636;2023-03-21T06:40:01;5.72;;;3.75;;
43325;SDS011;28920;59.862;30.636;2023-03-21T06:42:30;6.03;;;2.85;;
43325;SDS011;28920;59.862;30.636;2023-03-21T06:44:59;3.22;;;2.20;;
43325;SDS011;28920;59.862;30.636;2023-03-21T06:47:27;5.65;;;3.70;;
43325;SDS011;28920;59.862;30.636;2023-03-21T06:49:55;4.12;;;2.45;;
43325;SDS011;28920;59.862;30.636;2023-03-21T06:52:22;5.28;;;3.58;;
43325;SDS011;28920;59.862;30.636;2023-03-21T06:54:52;8.35;;;6.10;;
43325;SDS011;28920;59.862;30.636;2023-03-21T06:57:19;4.60;;;3.37;;
43325;SDS011;28920;59.862;30.636;2023-03-21T06:59:47;6.12;;;4.22;;
43325;SDS011;28920;59.862;30.636;2023-03-21T07:02:15;4.72;;;2.78;;
43325;SDS011;28920;59.862;30.636;2023-03-21T07:04:43;4.40;;;2.53;;
43325;SDS011;28920;59.862;30.636;2023-03-21T07:07:10;2.83;;;2.10;;
43325;SDS011;28920;59.862;30.636;2023-03-21T07:09:38;2.55;;;2.12;;
43325;SDS011;28920;59.862;30.636;2023-03-21T07:12:06;2.05;;;1.52;;
43325;SDS011;28920;59.862;30.636;2023-03-21T07:14:34;2.90;;;1.42;;
43325;SDS011;28920;59.862;30.636;2023-03-21T07:17:02;2.62;;;1.73;;
43325;SDS011;28920;59.862;30.636;2023-03-21T07:19:30;2.67;;;1.75;;
43325;SDS011;28920;59.862;30.636;2023-03-21T07:21:58;12.37;;;11.12;;
43325;SDS011;28920;59.862;30.636;2023-03-21T07:24:27;6.35;;;5.75;;
43325;SDS011;28920;59.862;30.636;2023-03-21T07:26:54;3.53;;;3.22;;
43325;SDS011;28920;59.862;30.636;2023-03-21T07:29:21;2.50;;;1.60;;
43325;SDS011;28920;59.862;30.636;2023-03-21T07:31:50;2.97;;;1.52;;
43325;SDS011;28920;59.862;30.636;2023-03-21T07:34:17;2.12;;;1.77;;
43325;SDS011;28920;59.862;30.636;2023-03-21T07:36:45;1.60;;;1.42;;
43325;SDS011;28920;59.862;30.636;2023-03-21T07:39:13;2.90;;;1.95;;
43325;SDS011;28920;59.862;30.636;2023-03-21T07:41:40;2.40;;;1.70;;
43325;SDS011;28920;59.862;30.636;2023-03-21T07:44:08;3.70;;;1.77;;
43325;SDS011;28920;59.862;30.636;2023-03-21T07:46:36;2.50;;;1.62;;
43325;SDS011;28920;59.862;30.636;2023-03-21T07:49:03;2.17;;;1.48;;
43325;SDS011;28920;59.862;30.636;2023-03-21T07:51:31;3.05;;;1.50;;
43325;SDS011;28920;59.862;30.636;2023-03-21T07:54:01;2.33;;;1.50;;
43325;SDS011;28920;59.862;30.636;2023-03-21T07:56:28;1.90;;;1.42;;
43325;SDS011;28920;59.862;30.636;2023-03-21T07:58:55;1.67;;;1.23;;
43325;SDS011;28920;59.862;30.636;2023-03-21T08:01:23;3.03;;;1.50;;
43325;SDS011;28920;59.862;30.636;2023-03-21T08:03:50;1.77;;;1.20;;
43325;SDS011;28920;59.862;30.636;2023-03-21T08:06:18;2.22;;;1.30;;
43325;SDS011;28920;59.862;30.636;2023-03-21T08:08:46;2.87;;;1.62;;
43325;SDS011;28920;59.862;30.636;2023-03-21T08:11:14;1.98;;;1.20;;
43325;SDS011;28920;59.862;30.636;2023-03-21T08:13:41;2.47;;;1.20;;
43325;SDS011;28920;59.862;30.636;2023-03-21T08:16:08;2.40;;;1.20;;
43325;SDS011;28920;59.862;30.636;2023-03-21T08:18:35;2.80;;;1.48;;
43325;SDS011;28920;59.862;30.636;2023-03-21T08:21:03;2.90;;;1.50;;
43325;SDS011;28920;59.862;30.636;2023-03-21T08:23:30;4.50;;;4.10;;
43325;SDS011;28920;59.862;30.636;2023-03-21T08:25:57;2.75;;;2.30;;
43325;SDS011;28920;59.862;30.636;2023-03-21T08:28:25;1.27;;;1.17;;
43325;SDS011;28920;59.862;30.636;2023-03-21T08:30:53;1.92;;;1.30;;
43325;SDS011;28920;59.862;30.636;2023-03-21T08:33:20;1.70;;;1.33;;
43325;SDS011;28920;59.862;30.636;2023-03-21T08:35:48;2.45;;;1.80;;
43325;SDS011;28920;59.862;30.636;2023-03-21T08:38:15;3.42;;;1.27;;
43325;SDS011;28920;59.862;30.636;2023-03-21T08:40:42;2.33;;;1.42;;
43325;SDS011;28920;59.862;30.636;2023-03-21T08:43:10;2.30;;;1.50;;
43325;SDS011;28920;59.862;30.636;2023-03-21T08:45:37;2.72;;;1.45;;
43325;SDS011;28920;59.862;30.636;2023-03-21T08:48:05;2.87;;;1.87;;
43325;SDS011;28920;59.862;30.636;2023-03-21T08:50:32;2.22;;;1.90;;
43325;SDS011;28920;59.862;30.636;2023-03-21T08:52:59;1.70;;;1.30;;
43325;SDS011;28920;59.862;30.636;2023-03-21T08:55:26;1.58;;;1.33;;
43325;SDS011;28920;59.862;30.636;2023-03-21T08:57:53;2.70;;;1.98;;
43325;SDS011;28920;59.862;30.636;2023-03-21T09:00:21;2.28;;;1.62;;
43325;SDS011;28920;59.862;30.636;2023-03-21T09:02:49;3.05;;;1.90;;
43325;SDS011;28920;59.862;30.636;2023-03-21T09:05:19;2.87;;;1.50;;
43325;SDS011;28920;59.862;30.636;2023-03-21T09:07:47;3.97;;;1.55;;
43325;SDS011;28920;59.862;30.636;2023-03-21T09:10:15;1.98;;;1.30;;
43325;SDS011;28920;59.862;30.636;2023-03-21T09:12:44;1.55;;;1.10;;
43325;SDS011;28920;59.862;30.636;2023-03-21T09:15:12;1.90;;;1.30;;
43325;SDS011;28920;59.862;30.636;2023-03-21T09:17:40;1.40;;;1.10;;
43325;SDS011;28920;59.862;30.636;2023-03-21T09:20:10;1.60;;;1.25;;
43325;SDS011;28920;59.862;30.636;2023-03-21T09:22:44;1.50;;;1.17;;
43325;SDS011;28920;59.862;30.636;2023-03-21T09:25:12;1.58;;;1.20;;
43325;SDS011;28920;59.862;30.636;2023-03-21T09:27:40;2.90;;;2.08;;
43325;SDS011;28920;59.862;30.636;2023-03-21T09:30:09;5.72;;;3.10;;
43325;SDS011;28920;59.862;30.636;2023-03-21T09:32:37;2.53;;;1.73;;
43325;SDS011;28920;59.862;30.636;2023-03-21T09:35:05;2.10;;;1.33;;
43325;SDS011;28920;59.862;30.636;2023-03-21T09:37:34;2.30;;;1.58;;
43325;SDS011;28920;59.862;30.636;2023-03-21T09:40:03;4.03;;;3.67;;
43325;SDS011;28920;59.862;30.636;2023-03-21T09:42:35;1.30;;;1.00;;
43325;SDS011;28920;59.862;30.636;2023-03-21T09:45:15;1.70;;;1.27;;
43325;SDS011;28920;59.862;30.636;2023-03-21T09:47:48;1.27;;;1.17;;
43325;SDS011;28920;59.862;30.636;2023-03-21T09:50:19;2.08;;;1.20;;
43325;SDS011;28920;59.862;30.636;2023-03-21T09:52:54;2.00;;;1.00;;
43325;SDS011;28920;59.862;30.636;2023-03-21T09:55:24;1.48;;;1.00;;
43325;SDS011;28920;59.862;30.636;2023-03-21T09:57:59;1.10;;;0.90;;
43325;SDS011;28920;59.862;30.636;2023-03-21T10:00:32;2.45;;;1.27;;
43325;SDS011;28920;59.862;30.636;2023-03-21T10:03:03;1.77;;;1.20;;
43325;SDS011;28920;59.862;30.636;2023-03-21T10:05:32;2.05;;;1.30;;
43325;SDS011;28920;59.862;30.636;2023-03-21T10:08:05;1.52;;;1.27;;
43325;SDS011;28920;59.862;30.636;2023-03-21T10:10:35;1.65;;;1.10;;
43325;SDS011;28920;59.862;30.636;2023-03-21T10:13:10;3.20;;;1.17;;
43325;SDS011;28920;59.862;30.636;2023-03-21T10:15:41;1.90;;;0.95;;
43325;SDS011;28920;59.862;30.636;2023-03-21T10:18:10;1.02;;;0.93;;
43325;SDS011;28920;59.862;30.636;2023-03-21T10:20:44;1.65;;;1.10;;
43325;SDS011;28920;59.862;30.636;2023-03-21T10:23:14;1.67;;;0.90;;
43325;SDS011;28920;59.862;30.636;2023-03-21T10:25:43;2.28;;;0.80;;
43325;SDS011;28920;59.862;30.636;2023-03-21T10:28:14;1.30;;;1.00;;
43325;SDS011;28920;59.862;30.636;2023-03-21T10:30:44;3.00;;;0.90;;
43325;SDS011;28920;59.862;30.636;2023-03-21T10:33:15;1.90;;;1.00;;
43325;SDS011;28920;59.862;30.636;2023-03-21T10:35:48;1.10;;;0.93;;
43325;SDS011;28920;59.862;30.636;2023-03-21T10:38:18;1.40;;;1.30;;
43325;SDS011;28920;59.862;30.636;2023-03-21T10:40:48;1.98;;;1.30;;
43325;SDS011;28920;59.862;30.636;2023-03-21T10:43:18;1.55;;;1.27;;
43325;SDS011;28920;59.862;30.636;2023-03-21T10:45:56;1.30;;;0.90;;
43325;SDS011;28920;59.862;30.636;2023-03-21T10:48:23;1.37;;;1.20;;
43325;SDS011;28920;59.862;30.636;2023-03-21T10:50:51;1.05;;;0.73;;
43325;SDS011;28920;59.862;30.636;2023-03-21T10:53:22;1.27;;;0.85;;
43325;SDS011;28920;59.862;30.636;2023-03-21T10:55:55;1.05;;;0.85;;
43325;SDS011;28920;59.862;30.636;2023-03-21T10:58:26;1.48;;;0.50;;
43325;SDS011;28920;59.862;30.636;2023-03-21T11:00:56;1.95;;;0.70;;
43325;SDS011;28920;59.862;30.636;2023-03-21T11:05:58;1.10;;;1.00;;
43325;SDS011;28920;59.862;30.636;2023-03-21T11:08:29;2.15;;;1.40;;
43325;SDS011;28920;59.862;30.636;2023-03-21T11:11:03;1.87;;;1.25;;
43325;SDS011;28920;59.862;30.636;2023-03-21T11:13:33;1.62;;;1.20;;
43325;SDS011;28920;59.862;30.636;2023-03-21T11:16:05;2.30;;;1.25;;
43325;SDS011;28920;59.862;30.636;2023-03-21T11:18:38;2.33;;;1.42;;
43325;SDS011;28920;59.862;30.636;2023-03-21T11:21:08;1.98;;;1.27;;
43325;SDS011;28920;59.862;30.636;2023-03-21T11:23:39;2.58;;;1.23;;
43325;SDS011;28920;59.862;30.636;2023-03-21T11:26:09;1.75;;;1.30;;
43325;SDS011;28920;59.862;30.636;2023-03-21T11:28:42;3.37;;;1.30;;
43325;SDS011;28920;59.862;30.636;2023-03-21T11:31:11;2.28;;;1.45;;
43325;SDS011;28920;59.862;30.636;2023-03-21T11:33:39;2.12;;;1.33;;
43325;SDS011;28920;59.862;30.636;2023-03-21T11:36:24;2.50;;;1.90;;
43325;SDS011;28920;59.862;30.636;2023-03-21T11:39:01;1.60;;;1.50;;
43325;SDS011;28920;59.862;30.636;2023-03-21T11:41:40;3.87;;;1.83;;
43325;SDS011;28920;59.862;30.636;2023-03-21T11:44:22;2.50;;;1.27;;
43325;SDS011;28920;59.862;30.636;2023-03-21T11:46:52;3.85;;;1.35;;
43325;SDS011;28920;59.862;30.636;2023-03-21T11:49:21;2.17;;;1.40;;
43325;SDS011;28920;59.862;30.636;2023-03-21T11:51:51;2.72;;;1.30;;
43325;SDS011;28920;59.862;30.636;2023-03-21T11:54:27;1.70;;;1.33;;
43325;SDS011;28920;59.862;30.636;2023-03-21T11:57:04;2.00;;;1.50;;
43325;SDS011;28920;59.862;30.636;2023-03-21T11:59:40;4.93;;;1.50;;
43325;SDS011;28920;59.862;30.636;2023-03-21T12:02:21;4.47;;;1.55;;
43325;SDS011;28920;59.862;30.636;2023-03-21T12:05:03;3.37;;;1.60;;
43325;SDS011;28920;59.862;30.636;2023-03-21T12:07:42;2.10;;;1.42;;
43325;SDS011;28920;59.862;30.636;2023-03-21T12:10:24;4.25;;;1.20;;
43325;SDS011;28920;59.862;30.636;2023-03-21T12:12:59;2.42;;;1.30;;
43325;SDS011;28920;59.862;30.636;2023-03-21T12:15:35;1.92;;;1.65;;
43325;SDS011;28920;59.862;30.636;2023-03-21T12:18:11;2.70;;;1.42;;
43325;SDS011;28920;59.862;30.636;2023-03-21T12:20:50;2.70;;;1.87;;
43325;SDS011;28920;59.862;30.636;2023-03-21T12:23:30;7.60;;;3.45;;
43325;SDS011;28920;59.862;30.636;2023-03-21T12:26:11;3.55;;;2.22;;
43325;SDS011;28920;59.862;30.636;2023-03-21T12:28:49;5.72;;;2.90;;
43325;SDS011;28920;59.862;30.636;2023-03-21T12:31:28;10.00;;;2.78;;
43325;SDS011;28920;59.862;30.636;2023-03-21T12:34:07;6.00;;;2.80;;
43325;SDS011;28920;59.862;30.636;2023-03-21T12:36:46;5.03;;;2.50;;
43325;SDS011;28920;59.862;30.636;2023-03-21T12:39:26;4.30;;;2.80;;
43325;SDS011;28920;59.862;30.636;2023-03-21T12:44:31;5.00;;;2.92;;
43325;SDS011;28920;59.862;30.636;2023-03-21T12:47:04;4.35;;;2.78;;
43325;SDS011;28920;59.862;30.636;2023-03-21T12:49:37;4.20;;;2.37;;
43325;SDS011;28920;59.862;30.636;2023-03-21T12:52:10;4.53;;;2.58;;
43325;SDS011;28920;59.862;30.636;2023-03-21T12:54:41;5.47;;;2.45;;
43325;SDS011;28920;59.862;30.636;2023-03-21T12:57:16;5.95;;;2.60;;
43325;SDS011;28920;59.862;30.636;2023-03-21T12:59:47;5.25;;;1.98;;
43325;SDS011;28920;59.862;30.636;2023-03-21T13:02:22;2.90;;;1.95;;
43325;SDS011;28920;59.862;30.636;2023-03-21T13:04:56;5.05;;;2.47;;
43325;SDS011;28920;59.862;30.636;2023-03-21T13:07:30;3.33;;;3.03;;
43325;SDS011;28920;59.862;30.636;2023-03-21T13:10:02;4.90;;;2.30;;
43325;SDS011;28920;59.862;30.636;2023-03-21T13:12:42;3.87;;;2.17;;
43325;SDS011;28920;59.862;30.636;2023-03-21T13:15:27;5.37;;;2.45;;
43325;SDS011;28920;59.862;30.636;2023-03-21T13:18:18;3.10;;;2.20;;
43325;SDS011;28920;59.862;30.636;2023-03-21T13:20:55;4.75;;;2.30;;
43325;SDS011;28920;59.862;30.636;2023-03-21T13:23:24;5.97;;;2.70;;
43325;SDS011;28920;59.862;30.636;2023-03-21T13:25:58;3.35;;;2.08;;
43325;SDS011;28920;59.862;30.636;2023-03-21T13:28:27;4.93;;;2.40;;
43325;SDS011;28920;59.862;30.636;2023-03-21T13:33:44;3.12;;;1.85;;
43325;SDS011;28920;59.862;30.636;2023-03-21T13:36:14;4.05;;;1.60;;
43325;SDS011;28920;59.862;30.636;2023-03-21T13:38:48;4.37;;;1.80;;
43325;SDS011;28920;59.862;30.636;2023-03-21T13:41:17;3.75;;;2.03;;
43325;SDS011;28920;59.862;30.636;2023-03-21T13:43:51;2.92;;;1.75;;
43325;SDS011;28920;59.862;30.636;2023-03-21T13:46:35;6.05;;;2.00;;
43325;SDS011;28920;59.862;30.636;2023-03-21T13:49:14;8.15;;;1.83;;
43325;SDS011;28920;59.862;30.636;2023-03-21T13:51:52;1.80;;;1.33;;
43325;SDS011;28920;59.862;30.636;2023-03-21T13:54:22;1.85;;;1.40;;
43325;SDS011;28920;59.862;30.636;2023-03-21T13:56:56;2.55;;;1.73;;
43325;SDS011;28920;59.862;30.636;2023-03-21T13:59:35;2.42;;;1.40;;
43325;SDS011;28920;59.862;30.636;2023-03-21T14:02:17;3.75;;;1.27;;
43325;SDS011;28920;59.862;30.636;2023-03-21T14:04:52;3.67;;;1.65;;
43325;SDS011;28920;59.862;30.636;2023-03-21T14:07:22;4.87;;;1.37;;
43325;SDS011;28920;59.862;30.636;2023-03-21T14:09:53;5.12;;;1.50;;
43325;SDS011;28920;59.862;30.636;2023-03-21T14:12:24;3.03;;;1.83;;
43325;SDS011;28920;59.862;30.636;2023-03-21T14:14:58;2.45;;;1.60;;
43325;SDS011;28920;59.862;30.636;2023-03-21T14:17:27;4.00;;;1.70;;
43325;SDS011;28920;59.862;30.636;2023-03-21T14:19:58;2.75;;;1.40;;
43325;SDS011;28920;59.862;30.636;2023-03-21T14:22:26;1.30;;;0.93;;
43325;SDS011;28920;59.862;30.636;2023-03-21T14:24:56;1.98;;;1.08;;
43325;SDS011;28920;59.862;30.636;2023-03-21T14:27:24;3.37;;;0.98;;
43325;SDS011;28920;59.862;30.636;2023-03-21T14:29:57;2.53;;;1.23;;
43325;SDS011;28920;59.862;30.636;2023-03-21T14:32:27;2.92;;;1.40;;
43325;SDS011;28920;59.862;30.636;2023-03-21T14:34:56;2.17;;;1.12;;
43325;SDS011;28920;59.862;30.636;2023-03-21T14:37:27;3.20;;;1.35;;
43325;SDS011;28920;59.862;30.636;2023-03-21T14:39:57;1.60;;;1.40;;
43325;SDS011;28920;59.862;30.636;2023-03-21T14:42:25;1.65;;;1.20;;
43325;SDS011;28920;59.862;30.636;2023-03-21T14:44:54;3.20;;;0.90;;
43325;SDS011;28920;59.862;30.636;2023-03-21T14:47:26;3.05;;;1.27;;
43325;SDS011;28920;59.862;30.636;2023-03-21T14:49:55;3.17;;;1.10;;
43325;SDS011;28920;59.862;30.636;2023-03-21T14:52:23;4.57;;;1.80;;
43325;SDS011;28920;59.862;30.636;2023-03-21T14:54:55;3.60;;;1.50;;
43325;SDS011;28920;59.862;30.636;2023-03-21T14:57:26;3.00;;;1.67;;
43325;SDS011;28920;59.862;30.636;2023-03-21T14:59:57;2.10;;;1.70;;
43325;SDS011;28920;59.862;30.636;2023-03-21T15:02:31;4.90;;;1.92;;
43325;SDS011;28920;59.862;30.636;2023-03-21T15:05:05;3.15;;;1.85;;
43325;SDS011;28920;59.862;30.636;2023-03-21T15:07:35;3.50;;;1.80;;
43325;SDS011;28920;59.862;30.636;2023-03-21T15:10:03;4.03;;;1.73;;